Stations météo

réclame
Mon MeteoGroup
Getafe Airbase, Espagne (8225): Température de l'air & dewpoint: 15.09.2018 23:00:00 - 21.09.2018 23:00:00 (CEST)Getafe Airbase, Espagne (8225): Vitesse du vent: 15.09.2018 23:00:00 - 21.09.2018 23:00:00 (CEST)Getafe Airbase, Espagne (8225): Direction du vent: 15.09.2018 23:00:00 - 21.09.2018 23:00:00 (CEST)Getafe Airbase, Espagne (8225): visibility: 15.09.2018 23:00:00 - 21.09.2018 23:00:00 (CEST)
Date & Time tt [°C] td [°C] ff [km/h] ff [knt] dd vv [km]
21.09.2018 23:00:00 - - - - - -
21.09.2018 22:00:00 - - - - - -
21.09.2018 21:00:00 - - - - - -
21.09.2018 20:00:00 30,0 8,0 9 5 SW 10
21.09.2018 19:00:00 32,0 7,0 11 6 WSW 10
21.09.2018 18:00:00 31,0 10,0 9 5 WSW 10
21.09.2018 17:00:00 31,0 10,0 11 6 W 10
21.09.2018 16:00:00 31,0 11,0 8 4 WSW 10
21.09.2018 15:00:00 31,0 11,0 4 2 - 10
21.09.2018 14:00:00 29,0 11,0 5 3 S 10
21.09.2018 13:00:00 28,0 12,0 5 3 - 10
21.09.2018 12:00:00 26,0 12,0 5 3 E 10
21.09.2018 11:00:00 24,0 12,0 5 3 NE 10
21.09.2018 10:00:00 22,0 12,0 5 3 NE 10
21.09.2018 09:00:00 19,0 13,0 8 4 NE 10
21.09.2018 08:00:00 17,0 13,0 5 3 ESE 10
21.09.2018 07:00:00 18,0 13,0 9 5 NE 10
21.09.2018 06:00:00 - - - - - -
21.09.2018 05:00:00 - - - - - -
21.09.2018 04:00:00 - - - - - -
21.09.2018 03:00:00 - - - - - -
21.09.2018 02:00:00 - - - - - -
21.09.2018 01:00:00 - - - - - -
21.09.2018 00:00:00 - - - - - -
20.09.2018 23:00:00 24,0 13,0 4 2 - 10
20.09.2018 22:00:00 26,0 12,0 8 4 NNW 10
20.09.2018 21:00:00 28,0 11,0 9 5 - 10
20.09.2018 20:00:00 30,0 10,0 8 4 SW 10
20.09.2018 19:00:00 32,0 9,0 8 4 W 10
20.09.2018 18:00:00 32,0 9,0 8 4 WSW 10
20.09.2018 17:00:00 32,0 10,0 8 4 - 10
20.09.2018 16:00:00 32,0 10,0 5 3 W 10
20.09.2018 15:00:00 31,0 12,0 4 2 - 10
20.09.2018 14:00:00 29,0 14,0 5 3 - 10
20.09.2018 13:00:00 27,0 15,0 4 2 - 10
20.09.2018 12:00:00 25,0 15,0 4 2 - 10
20.09.2018 11:00:00 23,0 15,0 8 4 E 10
20.09.2018 10:00:00 21,0 14,0 5 3 ENE 10
20.09.2018 09:00:00 19,0 14,0 5 3 E 10
20.09.2018 08:00:00 18,0 13,0 8 4 NE 10
20.09.2018 07:00:00 18,0 13,0 5 3 ENE 10
20.09.2018 06:00:00 - - - - - -
20.09.2018 05:00:00 - - - - - -
20.09.2018 04:00:00 - - - - - -
20.09.2018 03:00:00 - - - - - -
20.09.2018 02:00:00 - - - - - -
20.09.2018 01:00:00 - - - - - -
20.09.2018 00:00:00 - - - - - -
19.09.2018 23:00:00 25,0 12,0 5 3 W 10
19.09.2018 22:00:00 26,0 13,0 4 2 - 10
19.09.2018 21:00:00 26,0 12,0 4 2 - 10
19.09.2018 20:00:00 29,0 13,0 0 0 N 10
19.09.2018 19:00:00 31,0 11,0 4 2 - 10
19.09.2018 18:00:00 31,0 10,0 8 4 E 10
19.09.2018 17:00:00 31,0 12,0 5 3 SE 10
19.09.2018 16:00:00 30,0 13,0 5 3 SE 10
19.09.2018 15:00:00 29,0 14,0 8 4 SE 10
19.09.2018 14:00:00 28,0 15,0 5 3 - 10
19.09.2018 13:00:00 26,0 15,0 4 2 - 10
19.09.2018 12:00:00 24,0 16,0 0 0 N 10
19.09.2018 11:00:00 21,0 15,0 4 2 - 10
19.09.2018 10:00:00 20,0 14,0 8 4 E 10
19.09.2018 09:00:00 18,0 15,0 5 3 E 10
19.09.2018 08:00:00 18,0 15,0 9 5 NE 10
19.09.2018 07:00:00 18,0 15,0 8 4 ENE 10
19.09.2018 06:00:00 - - - - - -
19.09.2018 05:00:00 - - - - - -
19.09.2018 04:00:00 - - - - - -
19.09.2018 03:00:00 - - - - - -
19.09.2018 02:00:00 - - - - - -
19.09.2018 01:00:00 - - - - - -
19.09.2018 00:00:00 - - - - - -
18.09.2018 23:00:00 - - - - - -
18.09.2018 22:00:00 - - - - - -
18.09.2018 21:00:00 24,0 15,0 0 0 N 10
18.09.2018 20:00:00 25,0 14,0 4 2 - 10
18.09.2018 19:00:00 26,0 15,0 11 6 NNW 10
18.09.2018 18:00:00 27,0 14,0 18 10 NW 10
18.09.2018 17:00:00 29,0 15,0 8 4 - 10
18.09.2018 16:00:00 28,0 15,0 2 1 S 10
18.09.2018 15:00:00 28,0 15,0 2 1 W 10
18.09.2018 14:00:00 25,0 15,0 4 2 - 10
18.09.2018 13:00:00 24,0 17,0 5 3 SE 10
18.09.2018 12:00:00 22,0 18,0 2 1 - 10
18.09.2018 11:00:00 21,0 17,0 5 3 E 10
18.09.2018 10:00:00 20,0 17,0 5 3 E 10
18.09.2018 09:00:00 19,0 16,0 4 2 - 10
18.09.2018 08:00:00 18,0 16,0 4 2 - 10
18.09.2018 07:00:00 18,0 16,0 2 1 ENE 10
18.09.2018 06:00:00 - - - - - -
18.09.2018 05:00:00 - - - - - -
18.09.2018 04:00:00 - - - - - -
18.09.2018 03:00:00 - - - - - -
18.09.2018 02:00:00 - - - - - -
18.09.2018 01:00:00 - - - - - -
18.09.2018 00:00:00 - - - - - -
17.09.2018 23:00:00 - - - - - -
17.09.2018 22:00:00 - - - - - -
17.09.2018 21:00:00 24,0 16,0 22 12 SSE 10
17.09.2018 20:00:00 22,0 17,0 11 6 E 10
17.09.2018 19:00:00 19,0 16,0 22 12 SSE 1,3
17.09.2018 18:00:00 31,0 12,0 11 6 SE 10
17.09.2018 17:00:00 30,0 12,0 4 2 - 10
17.09.2018 16:00:00 30,0 13,0 9 5 ESE 10
17.09.2018 15:00:00 30,0 14,0 9 5 SE 10
17.09.2018 14:00:00 28,0 13,0 11 6 ESE 10
17.09.2018 13:00:00 27,0 13,0 8 4 - 10
17.09.2018 12:00:00 25,0 13,0 9 5 E 10
17.09.2018 11:00:00 24,0 13,0 11 6 ENE 10
17.09.2018 10:00:00 22,0 13,0 11 6 ENE 10
17.09.2018 09:00:00 21,0 13,0 13 7 NE 10
17.09.2018 08:00:00 21,0 14,0 11 6 NE 10
17.09.2018 07:00:00 20,0 15,0 15 8 NNE 10
17.09.2018 06:00:00 - - - - - -
17.09.2018 05:00:00 - - - - - -
17.09.2018 04:00:00 - - - - - -
17.09.2018 03:00:00 - - - - - -
17.09.2018 02:00:00 - - - - - -
17.09.2018 01:00:00 - - - - - -
17.09.2018 00:00:00 - - - - - -
16.09.2018 23:00:00 - - - - - -
16.09.2018 22:00:00 - - - - - -
16.09.2018 21:00:00 27,0 8,0 4 2 - 10
16.09.2018 20:00:00 30,0 8,0 0 0 N 10
16.09.2018 19:00:00 31,0 9,0 4 2 - 10
16.09.2018 18:00:00 31,0 9,0 8 4 E 10
16.09.2018 17:00:00 30,0 10,0 4 2 - 10
16.09.2018 16:00:00 30,0 12,0 8 4 SSE 10
16.09.2018 15:00:00 30,0 13,0 8 4 - 10
16.09.2018 14:00:00 28,0 13,0 5 3 - 10
16.09.2018 13:00:00 26,0 14,0 5 3 - 10
16.09.2018 12:00:00 24,0 15,0 5 3 SE 10
16.09.2018 11:00:00 22,0 15,0 4 2 SSE 10
16.09.2018 10:00:00 20,0 14,0 0 0 N 10
16.09.2018 09:00:00 19,0 14,0 0 0 N 10
16.09.2018 08:00:00 17,0 14,0 4 2 ESE 10
16.09.2018 07:00:00 17,0 14,0 4 2 SE 10
16.09.2018 06:00:00 - - - - - -
16.09.2018 05:00:00 - - - - - -
16.09.2018 04:00:00 - - - - - -
16.09.2018 03:00:00 - - - - - -
16.09.2018 02:00:00 - - - - - -
16.09.2018 01:00:00 - - - - - -
16.09.2018 00:00:00 - - - - - -
15.09.2018 23:00:00 - - - - - -

tt = Température de l'air
td = dewpoint
ff = Vitesse du vent
dd = Direction du vent
vv = visibility

stations d'obs. à proximité